»·PEaware :: N196EC KPSP-KSNA

N196EC :: KPSP-KSNA

FLIGHT INFORMATION

Flight Status: Arrived
Operator: Privately registered:
United States
More flights under this callsign
Pilot: Adrián R. (20842)
Aircraft: AERMACCHI WARRIOR
(F260)
More flights by this aircraft type
Origin: KPSP Palm Springs Intl
United States
Destination: KSNA John Wayne-Orange Co
United States
More flights between these airports :: More routes between these airports
Route: CATH1 PSP V388 PDZ PDZ270/13 RNDAL V363 POXKU V8 SLI
File this flight plan on PilotEdge
Remarks: TECROUTE PSPP18
Altitude:
(Current/Filed)
10,000ft
Speed:
(Current/Filed)
145kts
Departed: 07-Dec-18 08:38 AM
Arrived: 07-Dec-18 09:22 AM
Distance/Time
Traveled:
69nm/0:44
Distance/Time
To Go:
Arrived

Flight Plot

Page will automatically refresh every two minutes.

Flight plan parsing failed; only flown route is shown


Map Options




Map Legend


Flown Route
Filed Route
Departure Airport
Arrival Airport
Navaid (VOR, NDB)
Fix

Horizontal Profiles

Position Reports

Time Latitude Longitude Heading Altitude Ground
Speed
07-Dec-18 08:06 33.822483 -116.496000 233 480ft 0kts
07-Dec-18 08:07 33.822483 -116.496000 233 480ft 0kts
07-Dec-18 08:08 33.822483 -116.496000 233 480ft 0kts
07-Dec-18 08:09 33.822483 -116.496000 233 480ft 0kts
07-Dec-18 08:10 33.822483 -116.496000 232 480ft 0kts
07-Dec-18 08:11 33.822483 -116.496000 232 480ft 0kts
07-Dec-18 08:12 33.822483 -116.496000 232 480ft 0kts
07-Dec-18 08:13 33.822483 -116.496000 233 480ft 0kts
07-Dec-18 08:14 33.822483 -116.496000 232 480ft 0kts
07-Dec-18 08:15 33.822483 -116.496000 232 480ft 0kts
07-Dec-18 08:16 33.822483 -116.496000 232 480ft 0kts
07-Dec-18 08:17 33.822483 -116.496000 232 480ft 0kts
07-Dec-18 08:20 33.822483 -116.496000 232 480ft 0kts
07-Dec-18 08:20 33.822483 -116.496000 232 480ft 0kts
07-Dec-18 08:20 33.822483 -116.496000 232 480ft 0kts
07-Dec-18 08:22 33.822483 -116.496000 232 480ft 0kts
07-Dec-18 08:23 33.822483 -116.496000 232 480ft 0kts
07-Dec-18 08:24 33.822483 -116.496000 232 480ft 0kts
07-Dec-18 08:25 33.822483 -116.496000 232 480ft 0kts
07-Dec-18 08:26 33.822483 -116.496000 232 480ft 0kts
07-Dec-18 08:27 33.822474 -116.496017 244 480ft 1kts
07-Dec-18 08:28 33.822728 -116.497367 328 480ft 11kts
07-Dec-18 08:29 33.824241 -116.498811 317 480ft 0kts
07-Dec-18 08:30 33.824241 -116.498811 316 480ft 0kts
07-Dec-18 08:31 33.824241 -116.498811 317 480ft 0kts
07-Dec-18 08:32 33.824241 -116.498811 317 480ft 0kts
07-Dec-18 08:33 33.824466 -116.499024 321 480ft 8kts
07-Dec-18 08:34 33.824558 -116.499582 229 480ft 0kts
07-Dec-18 08:35 33.824558 -116.499582 229 480ft 0kts
07-Dec-18 08:36 33.824558 -116.499582 229 480ft 0kts
07-Dec-18 08:37 33.824416 -116.499792 232 480ft 7kts
07-Dec-18 08:38 33.831691 -116.506274 324 593ft 96kts
07-Dec-18 08:39 33.856607 -116.528759 320 1747ft 124kts
07-Dec-18 08:40 33.884093 -116.554194 320 3004ft 123kts
07-Dec-18 08:41 33.911776 -116.553434 78 4066ft 127kts
07-Dec-18 08:42 33.900426 -116.514069 114 5008ft 127kts
07-Dec-18 08:42 33.888432 -116.480438 113 5743ft 132kts
07-Dec-18 08:43 33.874526 -116.440421 113 6731ft 128kts
07-Dec-18 08:44 33.859009 -116.402485 119 7590ft 124kts
07-Dec-18 08:45 33.853875 -116.364001 32 8322ft 135kts
07-Dec-18 08:46 33.883257 -116.385217 311 9031ft 137kts
07-Dec-18 08:48 33.898180 -116.434550 266 9741ft 137kts
07-Dec-18 08:48 33.894109 -116.473490 261 10005ft 150kts
07-Dec-18 08:49 33.894190 -116.525460 284 9998ft 158kts
07-Dec-18 08:50 33.905933 -116.575065 285 9999ft 152kts
07-Dec-18 08:51 33.917830 -116.623828 285 10000ft 151kts
07-Dec-18 08:52 33.929112 -116.670535 284 9996ft 151kts
07-Dec-18 08:53 33.940557 -116.717987 285 10007ft 150kts
07-Dec-18 08:54 33.947958 -116.766846 272 10014ft 151kts
07-Dec-18 08:55 33.947955 -116.817761 268 10002ft 153kts
07-Dec-18 08:56 33.946320 -116.868878 267 9989ft 153kts
07-Dec-18 08:57 33.944329 -116.920095 267 9984ft 153kts
07-Dec-18 08:58 33.942250 -116.971416 267 9983ft 153kts
07-Dec-18 08:59 33.940150 -117.022535 268 9983ft 153kts
07-Dec-18 09:00 33.938051 -117.073298 268 9982ft 151kts
07-Dec-18 09:01 33.935953 -117.123459 268 9982ft 149kts
07-Dec-18 09:02 33.933862 -117.173090 268 9984ft 149kts
07-Dec-18 09:03 33.931738 -117.223363 269 9763ft 162kts
07-Dec-18 09:04 33.929328 -117.281220 268 8985ft 178kts
07-Dec-18 09:05 33.926675 -117.340932 268 8195ft 183kts
07-Dec-18 09:06 33.924039 -117.400346 268 7988ft 170kts
07-Dec-18 09:07 33.921516 -117.456519 268 7990ft 167kts
07-Dec-18 09:08 33.918956 -117.512172 268 7990ft 167kts
07-Dec-18 09:09 33.926184 -117.567021 287 7713ft 179kts
07-Dec-18 09:10 33.939731 -117.627186 286 6933ft 188kts
07-Dec-18 09:11 33.951424 -117.681089 284 6223ft 175kts
07-Dec-18 09:12 33.963253 -117.735839 284 5409ft 166kts
07-Dec-18 09:13 33.966257 -117.788299 232 4603ft 169kts
07-Dec-18 09:14 33.921579 -117.791965 171 3974ft 163kts
07-Dec-18 09:15 33.878492 -117.783362 171 3971ft 155kts
07-Dec-18 09:16 33.833183 -117.775330 179 3299ft 172kts
07-Dec-18 09:17 33.791071 -117.796418 217 2777ft 166kts
07-Dec-18 09:18 33.751942 -117.820296 196 2068ft 153kts
07-Dec-18 09:19 33.716447 -117.840683 210 893ft 126kts
07-Dec-18 09:20 33.689147 -117.858440 209 269ft 85kts
07-Dec-18 09:21 33.673979 -117.867684 138 59ft 13kts
07-Dec-18 09:22 33.672235 -117.868016 202 59ft 10kts
07-Dec-18 09:23 33.670677 -117.868128 0 59ft 0kts
07-Dec-18 09:24 33.670677 -117.868128 0 59ft 0kts

Navigation Log

Ident Type
Flight plan parsing failed, navigation log unavailable